Terminal Aerodrome Forecast
Issued by NWS San Angelo, TX

Home | Current Version | Previous Version | Text Only | Print | Product List | Glossary On
Versions: 1 2 3 4 5 6 7 8 9 10 11 12 13 14 15
109
FTUS44 KSJT 260520
TAFSJT
TAF
KSJT 260520Z 2606/2706 18011G17KT P6SM SKC
     FM261300 23011KT P6SM SCT020
     FM261600 25010KT P6SM SCT250
     FM270300 18008KT P6SM SCT250=

USA.gov is the U.S. government's official web portal to all federal, state and local government web resources and services.